Terminal Aerodrome Forecast
Issued by NWS

Home | Current Version | Previous Version | Text Only | Print | Product List | Glossary On
Versions: 1 2 3 4 5 6 7 8 9 10 11 12 13 14 15 16 17 18 19 20 21 22 23 24 25 26
000
FTUS45 KABQ 011100 CCA
TAFLVS
TAF COR
KLVS 011142Z 0112/0212 VRB05KT P6SM BKN015 BKN060
      TEMPO 0112/0114 1SM BR BKN008
     FM011400 15008KT P6SM FEW015 BKN035
     FM011700 16010KT P6SM SCT035 BKN050
     FM012200 16011KT P6SM VCTS BKN050CB BKN090
      TEMPO 0200/0203 VRB15G23KT 5SM TSRA BKN035CB
     FM020300 05008KT 6SM BR VCSH SCT015 BKN025=

USA.gov is the U.S. government's official web portal to all federal, state and local government web resources and services.